ฮานอย, ประเทศเวียดนาม

09:45 AM ICT วัน เมษายน 26, 2015 (GMT +0700)
Noibai International | | Change Station
CLOSE
Current Station
Airport
Location: Ha Noi,
Elevation: 36 ft
Nearby Weather Stations

Elev 36 ft 21.22 °N, 105.81 °E | Updated 15 minutes ago

Clear
ท้องฟ้าแจ่มใส
79 ฟาเรนไฮน์
Feels Like 79 ฟาเรนไฮน์
N
4
ลม ความผันแปร ลม from ความผันแปร

วันนี้
High -- | Low -- ฟาเรนไฮน์
--% Chance of Precip.
Yesterday
High -- | Low -- ฟาเรนไฮน์
Precip. -- นิ้ว
5:29 AM 6:19 PM
เดือนเสี้ยว, 51% visible
ความดัน 30.06 นิ้ว
ทัศนวิสัย 5.6 ไมล์
เมฆ
อุณหภูมิที่อากาศอาจจับตัวเป็นหยาดน้ำค้าง 68 ฟาเรนไฮน์
ความชื้น 69%
Rainfall 0.00 นิ้ว
Snow Depth Not available.
UV Not available.
Pollen Not available.
Air Quality Not available.
Flu Activity Not available.
METAR VVNB 260230Z VRB03KT 9000 NSC 26/20 Q1018 NOSIG

More Conditions Fewer Conditions

ความดัน 30.06 นิ้ว
ทัศนวิสัย 5.6 ไมล์
เมฆ
อุณหภูมิที่อากาศอาจจับตัวเป็นหยาดน้ำค้าง 68 ฟาเรนไฮน์
ความชื้น 69%
Rainfall 0.00 นิ้ว
Snow Depth Not available.
UV Not available.
Pollen Not available.
Air Quality Not available.
Flu Activity Not available.
METAR VVNB 260230Z VRB03KT 9000 NSC 26/20 Q1018 NOSIG

More Conditions Fewer Conditions

10-Day Weather Forecast

Almanac

ดาราศาสตร์

Apr. 26, 2015 Rise Set
Actual Time
Civil Twilight
Nautical Twilight
Astronomical Twilight
Moon
Length Of Visible Light
ความยาวของวัน
Tomorrow will be .
, % of the Moon is Illuminated

Today's Extremes

Country Highs Country Lows

Community

WunderPhotos

Upload Photos

1,816,909 photos uploaded!

WunderBlogs® & News

Nearby

Air Quality

  Air Quality AQ Index Pollutant
Not available.

Snow Depth

Station Depth Elevation

Earthquake Activity

City Distance Mag. Time & Date
Minimum magnitude displayed is 2.5.

Coastal Water Temperatures

สถานที่ อุณหภูมิ

Stations

Nearby Weather Stations

Station Location Temp ลมหนาว อุณหภูมิที่อากาศอาจจับตัวเป็นหยาดน้ำค้าง ความชื้น ลม Precip. Elev ปรับปรุงล่าสุด Type